Flight Track Log - Related Links

Times and Time Zones

All times are in EDT time to prevent confusion due to time zone crossing. See the SWA565 flight status page for this flight to view local times or setup timezone preferences in your user account.

Time Position Orientation Groundspeed Altitude Reporting Facility
EDT Latitude Longitude Course Direction KTS MPH feet Rate Location/Type
Sun 11:18:07 PM 40.8217 -111.9797 269° West 313 360 5,400  Level Salt Lake Center
Sun 11:18:31 PM 40.8214 -111.9997 269° West 313 360 5,400 2,143 Level Salt Lake Center
Sun 11:18:49 PM 40.8175 -112.0239 258° West 230 265 6,900 3,672 Climbing Salt Lake Center
Sun 11:19:38 PM 40.8258 -112.0889 280° West 234 269 9,500 1,866 Climbing Salt Lake Center
Sun 11:20:48 PM 40.8150 -112.1892 262° West 278 320 10,600 1,455 Climbing Salt Lake Center
Sun 11:21:50 PM 40.7653 -112.2633 228° Southwest 286 329 12,700 2,049 Climbing Salt Lake Center
Sun 11:22:51 PM 40.6647 -112.2950 193° South 315 362 14,800 2,459 Climbing Salt Lake Center
Sun 11:23:52 PM 40.5800 -112.3092 187° South 309 356 17,700 2,459 Climbing Salt Lake Center
Sun 11:24:53 PM 40.4842 -112.3292 189° South 348 400 19,800 2,115 Climbing Salt Lake Center
Sun 11:25:54 PM 40.3775 -112.3517 189° South 387 445 22,000 2,410 Climbing Salt Lake Center
Sun 11:26:55 PM 40.2753 -112.4008 200° South 391 450 24,700 2,244 Climbing Salt Lake Center
Sun 11:27:57 PM 40.1822 -112.4678 209° Southwest 386 444 26,600 1,854 Climbing Salt Lake Center
Sun 11:28:58 PM 40.0831 -112.5381 208° Southwest 403 464 28,500 1,918 Climbing Salt Lake Center
Sun 11:29:59 PM 39.9822 -112.6086 208° Southwest 411 473 30,500 1,721 Climbing Salt Lake Center
Sun 11:31:00 PM 39.8831 -112.6792 209° Southwest 407 468 32,000 738 Climbing Salt Lake Center
Sun 11:32:01 PM 39.7592 -112.7631 208° Southwest 414 476 32,000  Level Salt Lake Center
Sun 11:33:02 PM 39.6694 -112.8181 205° Southwest 425 489 32,000  Level Salt Lake Center
Sun 11:34:03 PM 39.5133 -112.8436 187° South 468 539 32,000  Level Salt Lake Center
Sun 11:35:04 PM 39.3831 -112.8608 186° South 470 541 32,000  Level Salt Lake Center
Sun 11:36:06 PM 39.2539 -112.8814 187° South 469 540 32,000  Level Salt Lake Center
Sun 11:37:07 PM 39.1247 -112.9019 187° South 467 537 32,000  Level Salt Lake Center
Sun 11:38:08 PM 38.9958 -112.9208 186° South 467 537 32,000  Level Salt Lake Center
Sun 11:39:09 PM 38.8664 -112.9392 186° South 466 536 32,000 -492 Level Salt Lake Center
Sun 11:40:10 PM 38.7372 -112.9594 187° South 468 539 31,000 -984 Descending Salt Lake Center
Sun 11:41:11 PM 38.6092 -112.9775 186° South 464 534 30,000 -492 Descending Salt Lake Center
Sun 11:42:12 PM 38.4844 -112.9967 187° South 455 524 30,000  Level Salt Lake Center
Sun 11:43:13 PM 38.3564 -113.0194 188° South 462 532 30,000  Level Salt Lake Center
Sun 11:44:14 PM 38.2239 -113.0983 205° Southwest 437 503 30,000  Level Salt Lake Center
Sun 11:45:15 PM 38.1156 -113.1653 206° Southwest 435 501 30,000  Level Salt Lake Center
Sun 11:46:16 PM 38.0078 -113.2308 206° Southwest 435 501 30,000  Level Salt Lake Center
Sun 11:47:18 PM 37.9014 -113.2953 206° Southwest 431 496 30,000  Level Salt Lake Center
Sun 11:48:19 PM 37.7942 -113.3611 206° Southwest 431 496 30,000  Level Salt Lake Center
Sun 11:49:20 PM 37.6861 -113.4256 205° Southwest 433 498 30,000  Level Salt Lake Center
Sun 11:50:21 PM 37.5744 -113.4914 205° Southwest 443 510 30,000  Level Salt Lake Center
Sun 11:51:22 PM 37.4611 -113.5583 205° Southwest 450 518 30,000  Level Salt Lake Center
Sun 11:52:23 PM 37.3500 -113.6242 205° Southwest 447 514 30,000  Level Salt Lake Center
Sun 11:53:24 PM 37.2183 -113.7031 206° Southwest 441 507 30,000  Level Salt Lake Center
Sun 11:54:25 PM 37.1217 -113.7936 217° Southwest 439 505 30,000 -49 Level Los Angeles Center
Sun 11:55:26 PM 37.0267 -113.8844 217° Southwest 434 499 29,900 -1,317 Descending Los Angeles Center
Sun 11:56:28 PM 36.9403 -113.9650 217° Southwest 438 504 27,300 -2,878 Descending Los Angeles Center
Sun 11:57:29 PM 36.8297 -114.0714 218° Southwest 420 483 24,000 -2,732 Descending Los Angeles Center
Sun 11:58:31 PM 36.7503 -114.1461 217° Southwest 399 459 21,700 -2,439 Descending Los Angeles Center
Sun 11:59:32 PM 36.6594 -114.2311 217° Southwest 378 435 19,000 -2,488 Descending Los Angeles Center
Mon 12:00:34 AM 36.5808 -114.3064 218° Southwest 361 415 16,600 -2,341 Descending Los Angeles Center
Mon 12:01:35 AM 36.5025 -114.3789 217° Southwest 353 406 14,200 -2,146 Descending Los Angeles Center
Mon 12:02:37 AM 36.4264 -114.4494 217° Southwest 343 395 12,200 -1,467 Descending Los Angeles Center
Mon 12:03:05 AM 36.3878 -114.4822 214° Southwest 330 380 12,000 -197 Descending Los Angeles Center
Mon 12:03:38 AM 36.3467 -114.4925 191° South 322 371 12,000 -200 Level Los Angeles Center
Mon 12:04:05 AM 36.2983 -114.5072 194° South 310 357 11,800 -968 Descending Los Angeles Center
Mon 12:04:40 AM 36.2636 -114.5164 192° South 306 352 11,000 -1,343 Descending Los Angeles Center
Mon 12:05:12 AM 36.2250 -114.5667 226° Southwest 303 349 10,300 -984 Descending Los Angeles Center
Mon 12:05:41 AM 36.2067 -114.5886 224° Southwest 288 331 10,000 -1,091 Descending Los Angeles Center
Mon 12:06:07 AM 36.1767 -114.6311 229° Southwest 278 320 9,300 -871 Descending Los Angeles Center
Mon 12:06:43 AM 36.1614 -114.6794 249° West 267 307 9,100 -716 Descending Los Angeles Center
Mon 12:07:14 AM 36.1547 -114.7186 258° West 246 283 8,500 -1,082 Descending Los Angeles Center
Mon 12:07:44 AM 36.1472 -114.7578 257° West 237 273 8,000 -1,091 Descending Los Angeles Center
Mon 12:08:09 AM 36.1422 -114.7894 259° West 231 266 7,500 -1,161 Descending Los Angeles Center
Mon 12:08:46 AM 36.1400 -114.8356 267° West 230 265 6,800 -1,091 Descending Los Angeles Center
Mon 12:09:04 AM 36.1389 -114.8625 267° West 230 265 6,500 -787 Descending Los Angeles Center
Mon 12:09:47 AM 36.1353 -114.9139 265° West 229 264 6,000 -448 Descending Los Angeles Center
Mon 12:10:11 AM 36.1336 -114.9467 266° West 209 241 6,000 -484 Level Los Angeles Center
Mon 12:10:49 AM 36.1331 -114.9803 269° West 204 235 5,500 -1,100 Descending Los Angeles Center
Mon 12:11:11 AM 36.1361 -115.0072 278° West 176 203 4,900 -1,180 Descending Los Angeles Center
Mon 12:11:50 AM 36.1378 -115.0383 274° West 180 207 4,300 -1,151 Descending Los Angeles Center
Mon 12:12:24 AM 36.1392 -115.0808 272° West 158 182 3,500 -774 Descending Los Angeles Center
Mon 12:12:52 AM 36.1406 -115.0925 278° West 170 196 3,500 -367 Level Los Angeles Center
Mon 12:13:13 AM 36.1336 -115.1147 249° West 130 150 3,200 -590 Descending Los Angeles Center
Mon 12:13:53 AM 36.1297 -115.1339 256° West 143 165 2,900 -787 Descending Los Angeles Center
Mon 12:14:14 AM 36.1147 -115.1475 216° Southwest 130 150 2,400 -774 Descending Los Angeles Center
Mon 12:14:55 AM 36.1003 -115.1561 206° Southwest 129 148 2,100 -439 Descending Los Angeles Center
Mon 12:16:00 AM 36.0801 -115.1523 219° Southwest  Level Estimated

Login

Don't have an account? Register now (free) for customized features, flight alerts, and more!